sensor_id;sensor_type;location;lat;lon;timestamp;temperature;humidity
74809;DHT22;63338;39.544;2.596;2023-07-29T00:00:13;27.40;82.60
74809;DHT22;63338;39.544;2.596;2023-07-29T00:02:51;27.30;82.50
74809;DHT22;63338;39.544;2.596;2023-07-29T00:05:47;27.20;82.40
74809;DHT22;63338;39.544;2.596;2023-07-29T00:08:38;27.10;82.80
74809;DHT22;63338;39.544;2.596;2023-07-29T00:11:18;27.10;82.80
74809;DHT22;63338;39.544;2.596;2023-07-29T00:17:37;27.10;82.80
74809;DHT22;63338;39.544;2.596;2023-07-29T00:23:17;27.00;83.10
74809;DHT22;63338;39.544;2.596;2023-07-29T00:26:00;26.90;83.00
74809;DHT22;63338;39.544;2.596;2023-07-29T00:28:40;26.80;83.00
74809;DHT22;63338;39.544;2.596;2023-07-29T00:31:19;26.80;83.10
74809;DHT22;63338;39.544;2.596;2023-07-29T00:34:30;26.90;83.20
74809;DHT22;63338;39.544;2.596;2023-07-29T00:37:54;26.80;83.30
74809;DHT22;63338;39.544;2.596;2023-07-29T00:40:38;26.80;83.20
74809;DHT22;63338;39.544;2.596;2023-07-29T00:43:19;26.90;83.20
74809;DHT22;63338;39.544;2.596;2023-07-29T00:46:04;26.70;83.40
74809;DHT22;63338;39.544;2.596;2023-07-29T00:48:47;26.80;83.30
74809;DHT22;63338;39.544;2.596;2023-07-29T00:52:04;26.70;83.40
74809;DHT22;63338;39.544;2.596;2023-07-29T00:54:46;26.70;83.50
74809;DHT22;63338;39.544;2.596;2023-07-29T00:57:14;26.70;83.70
74809;DHT22;63338;39.544;2.596;2023-07-29T00:59:41;26.70;83.60
74809;DHT22;63338;39.544;2.596;2023-07-29T01:02:09;26.70;83.60
74809;DHT22;63338;39.544;2.596;2023-07-29T01:04:36;26.70;83.70
74809;DHT22;63338;39.544;2.596;2023-07-29T01:08:06;26.70;83.60
74809;DHT22;63338;39.544;2.596;2023-07-29T01:10:23;26.70;83.70
74809;DHT22;63338;39.544;2.596;2023-07-29T01:15:36;26.60;83.90
74809;DHT22;63338;39.544;2.596;2023-07-29T01:18:13;26.60;84.00
74809;DHT22;63338;39.544;2.596;2023-07-29T01:20:42;26.60;83.90
74809;DHT22;63338;39.544;2.596;2023-07-29T01:23:10;26.50;84.10
74809;DHT22;63338;39.544;2.596;2023-07-29T01:25:36;26.60;84.30
74809;DHT22;63338;39.544;2.596;2023-07-29T01:28:02;26.50;84.20
74809;DHT22;63338;39.544;2.596;2023-07-29T01:30:39;26.50;84.10
74809;DHT22;63338;39.544;2.596;2023-07-29T01:33:11;26.50;84.30
74809;DHT22;63338;39.544;2.596;2023-07-29T01:35:46;26.60;84.20
74809;DHT22;63338;39.544;2.596;2023-07-29T01:38:18;26.50;84.30
74809;DHT22;63338;39.544;2.596;2023-07-29T01:40:49;26.50;84.40
74809;DHT22;63338;39.544;2.596;2023-07-29T01:43:16;26.50;84.30
74809;DHT22;63338;39.544;2.596;2023-07-29T01:45:44;26.40;84.10
74809;DHT22;63338;39.544;2.596;2023-07-29T01:48:11;26.40;84.10
74809;DHT22;63338;39.544;2.596;2023-07-29T01:50:37;26.30;84.30
74809;DHT22;63338;39.544;2.596;2023-07-29T01:53:03;26.30;84.60
74809;DHT22;63338;39.544;2.596;2023-07-29T01:55:29;26.20;84.70
74809;DHT22;63338;39.544;2.596;2023-07-29T01:57:59;26.20;85.10
74809;DHT22;63338;39.544;2.596;2023-07-29T02:00:28;26.20;85.20
74809;DHT22;63338;39.544;2.596;2023-07-29T02:02:54;26.10;85.20
74809;DHT22;63338;39.544;2.596;2023-07-29T02:05:24;26.10;85.30
74809;DHT22;63338;39.544;2.596;2023-07-29T02:07:50;26.00;85.20
74809;DHT22;63338;39.544;2.596;2023-07-29T02:10:16;26.00;85.30
74809;DHT22;63338;39.544;2.596;2023-07-29T02:12:42;26.00;85.40
74809;DHT22;63338;39.544;2.596;2023-07-29T02:15:09;25.80;85.10
74809;DHT22;63338;39.544;2.596;2023-07-29T02:17:36;25.70;85.00
74809;DHT22;63338;39.544;2.596;2023-07-29T02:20:05;25.80;85.10
74809;DHT22;63338;39.544;2.596;2023-07-29T02:22:31;25.60;84.70
74809;DHT22;63338;39.544;2.596;2023-07-29T02:24:57;25.50;84.30
74809;DHT22;63338;39.544;2.596;2023-07-29T02:27:24;25.50;84.40
74809;DHT22;63338;39.544;2.596;2023-07-29T02:29:54;25.40;84.00
74809;DHT22;63338;39.544;2.596;2023-07-29T02:32:20;25.40;83.60
74809;DHT22;63338;39.544;2.596;2023-07-29T02:34:47;25.30;83.30
74809;DHT22;63338;39.544;2.596;2023-07-29T02:37:13;25.20;83.30
74809;DHT22;63338;39.544;2.596;2023-07-29T02:39:39;25.20;83.00
74809;DHT22;63338;39.544;2.596;2023-07-29T02:42:05;25.10;82.70
74809;DHT22;63338;39.544;2.596;2023-07-29T02:44:31;25.10;82.40
74809;DHT22;63338;39.544;2.596;2023-07-29T02:46:58;25.00;82.10
74809;DHT22;63338;39.544;2.596;2023-07-29T02:49:26;25.00;82.00
74809;DHT22;63338;39.544;2.596;2023-07-29T02:51:52;25.00;81.80
74809;DHT22;63338;39.544;2.596;2023-07-29T02:54:18;24.80;82.00
74809;DHT22;63338;39.544;2.596;2023-07-29T02:56:45;24.80;81.70
74809;DHT22;63338;39.544;2.596;2023-07-29T02:59:11;24.80;81.80
74809;DHT22;63338;39.544;2.596;2023-07-29T03:01:37;24.80;81.60
74809;DHT22;63338;39.544;2.596;2023-07-29T03:04:03;24.70;81.40
74809;DHT22;63338;39.544;2.596;2023-07-29T03:06:29;24.70;81.30
74809;DHT22;63338;39.544;2.596;2023-07-29T03:08:55;24.70;81.40
74809;DHT22;63338;39.544;2.596;2023-07-29T03:11:22;24.60;81.40
74809;DHT22;63338;39.544;2.596;2023-07-29T03:13:48;24.60;81.40
74809;DHT22;63338;39.544;2.596;2023-07-29T03:16:16;24.60;81.50
74809;DHT22;63338;39.544;2.596;2023-07-29T03:18:43;24.60;81.20
74809;DHT22;63338;39.544;2.596;2023-07-29T03:21:11;24.50;81.30
74809;DHT22;63338;39.544;2.596;2023-07-29T03:23:38;24.50;81.30
74809;DHT22;63338;39.544;2.596;2023-07-29T03:26:04;24.40;81.20
74809;DHT22;63338;39.544;2.596;2023-07-29T03:28:41;24.50;81.30
74809;DHT22;63338;39.544;2.596;2023-07-29T03:31:07;24.40;81.30
74809;DHT22;63338;39.544;2.596;2023-07-29T03:33:34;24.40;81.60
74809;DHT22;63338;39.544;2.596;2023-07-29T03:36:00;24.40;81.60
74809;DHT22;63338;39.544;2.596;2023-07-29T03:38:26;24.50;81.60
74809;DHT22;63338;39.544;2.596;2023-07-29T03:40:53;24.30;81.60
74809;DHT22;63338;39.544;2.596;2023-07-29T03:43:19;24.30;81.70
74809;DHT22;63338;39.544;2.596;2023-07-29T03:45:45;24.40;81.80
74809;DHT22;63338;39.544;2.596;2023-07-29T03:48:15;24.30;81.70
74809;DHT22;63338;39.544;2.596;2023-07-29T03:50:41;24.30;81.60
74809;DHT22;63338;39.544;2.596;2023-07-29T03:53:07;24.30;81.90
74809;DHT22;63338;39.544;2.596;2023-07-29T03:55:35;24.20;82.10
74809;DHT22;63338;39.544;2.596;2023-07-29T03:58:01;24.30;82.20
74809;DHT22;63338;39.544;2.596;2023-07-29T04:00:28;24.30;82.40
74809;DHT22;63338;39.544;2.596;2023-07-29T04:02:54;24.20;82.30
74809;DHT22;63338;39.544;2.596;2023-07-29T04:05:20;24.20;82.40
74809;DHT22;63338;39.544;2.596;2023-07-29T04:07:47;24.20;82.50
74809;DHT22;63338;39.544;2.596;2023-07-29T04:10:15;24.20;82.60
74809;DHT22;63338;39.544;2.596;2023-07-29T04:12:42;24.10;82.70
74809;DHT22;63338;39.544;2.596;2023-07-29T04:15:09;24.10;83.00
74809;DHT22;63338;39.544;2.596;2023-07-29T04:17:35;24.10;82.90
74809;DHT22;63338;39.544;2.596;2023-07-29T04:20:01;24.10;82.80
74809;DHT22;63338;39.544;2.596;2023-07-29T04:22:28;24.00;83.10
74809;DHT22;63338;39.544;2.596;2023-07-29T04:24:54;24.10;83.30
74809;DHT22;63338;39.544;2.596;2023-07-29T04:27:20;24.00;83.40
74809;DHT22;63338;39.544;2.596;2023-07-29T04:29:49;24.00;83.50
74809;DHT22;63338;39.544;2.596;2023-07-29T04:32:16;24.00;83.50
74809;DHT22;63338;39.544;2.596;2023-07-29T04:34:42;24.00;84.00
74809;DHT22;63338;39.544;2.596;2023-07-29T04:37:08;24.00;84.20
74809;DHT22;63338;39.544;2.596;2023-07-29T04:39:34;24.00;84.00
74809;DHT22;63338;39.544;2.596;2023-07-29T04:42:00;23.90;84.30
74809;DHT22;63338;39.544;2.596;2023-07-29T04:44:26;24.00;84.10
74809;DHT22;63338;39.544;2.596;2023-07-29T04:46:52;23.90;84.40
74809;DHT22;63338;39.544;2.596;2023-07-29T04:49:19;23.90;84.60
74809;DHT22;63338;39.544;2.596;2023-07-29T04:51:45;23.90;84.80
74809;DHT22;63338;39.544;2.596;2023-07-29T04:54:11;23.90;84.50
74809;DHT22;63338;39.544;2.596;2023-07-29T04:56:38;23.90;84.80
74809;DHT22;63338;39.544;2.596;2023-07-29T04:59:04;24.00;85.00
74809;DHT22;63338;39.544;2.596;2023-07-29T05:01:30;23.90;85.00
74809;DHT22;63338;39.544;2.596;2023-07-29T05:03:59;23.90;85.00
74809;DHT22;63338;39.544;2.596;2023-07-29T05:06:25;23.90;84.80
74809;DHT22;63338;39.544;2.596;2023-07-29T05:08:57;23.80;85.10
74809;DHT22;63338;39.544;2.596;2023-07-29T05:11:24;23.90;84.90
74809;DHT22;63338;39.544;2.596;2023-07-29T05:13:52;24.00;84.70
74809;DHT22;63338;39.544;2.596;2023-07-29T05:16:19;23.90;84.60
74809;DHT22;63338;39.544;2.596;2023-07-29T05:18:45;24.00;84.30
74809;DHT22;63338;39.544;2.596;2023-07-29T05:21:11;24.00;84.20
74809;DHT22;63338;39.544;2.596;2023-07-29T05:23:40;24.00;84.30
74809;DHT22;63338;39.544;2.596;2023-07-29T05:26:06;24.10;84.20
74809;DHT22;63338;39.544;2.596;2023-07-29T05:28:32;24.10;84.20
74809;DHT22;63338;39.544;2.596;2023-07-29T05:31:01;24.10;84.20
74809;DHT22;63338;39.544;2.596;2023-07-29T05:33:27;24.20;84.10
74809;DHT22;63338;39.544;2.596;2023-07-29T05:35:57;24.20;84.10
74809;DHT22;63338;39.544;2.596;2023-07-29T05:38:23;24.20;83.90
74809;DHT22;63338;39.544;2.596;2023-07-29T05:40:53;24.40;83.30
74809;DHT22;63338;39.544;2.596;2023-07-29T05:43:19;24.40;82.70
74809;DHT22;63338;39.544;2.596;2023-07-29T05:45:45;24.50;81.90
74809;DHT22;63338;39.544;2.596;2023-07-29T05:48:11;24.60;80.30
74809;DHT22;63338;39.544;2.596;2023-07-29T05:50:37;24.70;79.60
74809;DHT22;63338;39.544;2.596;2023-07-29T05:53:03;24.80;78.90
74809;DHT22;63338;39.544;2.596;2023-07-29T05:55:31;25.00;77.90
74809;DHT22;63338;39.544;2.596;2023-07-29T05:58:01;25.10;77.30
74809;DHT22;63338;39.544;2.596;2023-07-29T06:00:27;25.20;76.10
74809;DHT22;63338;39.544;2.596;2023-07-29T06:02:53;25.30;76.00
74809;DHT22;63338;39.544;2.596;2023-07-29T06:05:19;25.40;76.10
74809;DHT22;63338;39.544;2.596;2023-07-29T06:07:45;25.60;75.60
74809;DHT22;63338;39.544;2.596;2023-07-29T06:10:14;25.80;75.20
74809;DHT22;63338;39.544;2.596;2023-07-29T06:12:44;25.90;74.50
74809;DHT22;63338;39.544;2.596;2023-07-29T06:15:11;26.00;74.20
74809;DHT22;63338;39.544;2.596;2023-07-29T06:17:38;26.10;73.60
74809;DHT22;63338;39.544;2.596;2023-07-29T06:20:05;26.30;73.40
74809;DHT22;63338;39.544;2.596;2023-07-29T06:22:32;26.30;72.20
74809;DHT22;63338;39.544;2.596;2023-07-29T06:24:58;26.40;71.20
74809;DHT22;63338;39.544;2.596;2023-07-29T06:27:25;26.60;71.10
74809;DHT22;63338;39.544;2.596;2023-07-29T06:29:52;26.60;70.80
74809;DHT22;63338;39.544;2.596;2023-07-29T06:32:18;26.80;70.20
74809;DHT22;63338;39.544;2.596;2023-07-29T06:34:44;26.90;69.80
74809;DHT22;63338;39.544;2.596;2023-07-29T06:37:10;26.90;68.60
74809;DHT22;63338;39.544;2.596;2023-07-29T06:39:36;27.00;68.50
74809;DHT22;63338;39.544;2.596;2023-07-29T06:42:05;27.20;69.40
74809;DHT22;63338;39.544;2.596;2023-07-29T06:44:31;27.30;69.30
74809;DHT22;63338;39.544;2.596;2023-07-29T06:47:01;27.50;69.50
74809;DHT22;63338;39.544;2.596;2023-07-29T06:49:29;27.60;69.10
74809;DHT22;63338;39.544;2.596;2023-07-29T06:51:56;27.60;69.50
74809;DHT22;63338;39.544;2.596;2023-07-29T06:54:25;27.70;69.30
74809;DHT22;63338;39.544;2.596;2023-07-29T06:56:57;27.80;69.60
74809;DHT22;63338;39.544;2.596;2023-07-29T06:59:26;27.90;69.70
74809;DHT22;63338;39.544;2.596;2023-07-29T07:01:52;28.00;69.70
74809;DHT22;63338;39.544;2.596;2023-07-29T07:04:18;28.00;68.00
74809;DHT22;63338;39.544;2.596;2023-07-29T07:06:45;28.10;68.10
74809;DHT22;63338;39.544;2.596;2023-07-29T07:09:14;28.10;68.00
74809;DHT22;63338;39.544;2.596;2023-07-29T07:11:40;28.20;67.70
74809;DHT22;63338;39.544;2.596;2023-07-29T07:14:06;28.20;68.00
74809;DHT22;63338;39.544;2.596;2023-07-29T07:16:32;28.30;68.00
74809;DHT22;63338;39.544;2.596;2023-07-29T07:18:58;28.40;67.80
74809;DHT22;63338;39.544;2.596;2023-07-29T07:21:24;28.50;67.70
74809;DHT22;63338;39.544;2.596;2023-07-29T07:23:50;28.60;67.40
74809;DHT22;63338;39.544;2.596;2023-07-29T07:26:17;28.60;67.60
74809;DHT22;63338;39.544;2.596;2023-07-29T07:28:43;28.50;67.30
74809;DHT22;63338;39.544;2.596;2023-07-29T07:31:09;28.70;67.70
74809;DHT22;63338;39.544;2.596;2023-07-29T07:33:36;28.80;68.40
74809;DHT22;63338;39.544;2.596;2023-07-29T07:36:02;28.90;69.50
74809;DHT22;63338;39.544;2.596;2023-07-29T07:38:28;28.90;69.30
74809;DHT22;63338;39.544;2.596;2023-07-29T07:40:57;28.90;69.80
74809;DHT22;63338;39.544;2.596;2023-07-29T07:43:26;29.00;69.30
74809;DHT22;63338;39.544;2.596;2023-07-29T07:45:58;29.00;70.00
74809;DHT22;63338;39.544;2.596;2023-07-29T07:48:26;29.00;69.50
74809;DHT22;63338;39.544;2.596;2023-07-29T07:50:52;29.10;69.60
74809;DHT22;63338;39.544;2.596;2023-07-29T07:53:18;29.10;69.10
74809;DHT22;63338;39.544;2.596;2023-07-29T07:55:48;29.30;68.70
74809;DHT22;63338;39.544;2.596;2023-07-29T07:58:14;29.30;69.00
74809;DHT22;63338;39.544;2.596;2023-07-29T08:00:40;29.30;69.50
74809;DHT22;63338;39.544;2.596;2023-07-29T08:03:07;29.40;69.80
74809;DHT22;63338;39.544;2.596;2023-07-29T08:05:33;29.40;70.50
74809;DHT22;63338;39.544;2.596;2023-07-29T08:07:59;29.50;70.80
74809;DHT22;63338;39.544;2.596;2023-07-29T08:10:25;29.50;70.50
74809;DHT22;63338;39.544;2.596;2023-07-29T08:12:52;29.50;70.60
74809;DHT22;63338;39.544;2.596;2023-07-29T08:15:18;29.50;70.40
74809;DHT22;63338;39.544;2.596;2023-07-29T08:17:45;29.40;70.30
74809;DHT22;63338;39.544;2.596;2023-07-29T08:20:11;29.30;70.30
74809;DHT22;63338;39.544;2.596;2023-07-29T08:22:38;29.30;70.60
74809;DHT22;63338;39.544;2.596;2023-07-29T08:25:04;29.30;71.10
74809;DHT22;63338;39.544;2.596;2023-07-29T08:27:35;29.30;71.10
74809;DHT22;63338;39.544;2.596;2023-07-29T08:30:13;29.30;71.30
74809;DHT22;63338;39.544;2.596;2023-07-29T08:32:45;29.30;71.30
74809;DHT22;63338;39.544;2.596;2023-07-29T08:35:11;29.40;72.10
74809;DHT22;63338;39.544;2.596;2023-07-29T08:37:37;29.40;72.50
74809;DHT22;63338;39.544;2.596;2023-07-29T08:40:03;29.40;73.50
74809;DHT22;63338;39.544;2.596;2023-07-29T08:42:31;29.50;73.60
74809;DHT22;63338;39.544;2.596;2023-07-29T08:45:05;29.50;74.30
74809;DHT22;63338;39.544;2.596;2023-07-29T08:47:33;29.50;74.10
74809;DHT22;63338;39.544;2.596;2023-07-29T08:49:59;29.60;74.10
74809;DHT22;63338;39.544;2.596;2023-07-29T08:52:27;29.60;74.20
74809;DHT22;63338;39.544;2.596;2023-07-29T08:54:55;29.70;74.40
74809;DHT22;63338;39.544;2.596;2023-07-29T08:57:22;30.00;73.90
74809;DHT22;63338;39.544;2.596;2023-07-29T08:59:49;30.30;73.10
74809;DHT22;63338;39.544;2.596;2023-07-29T09:02:18;30.80;72.40
74809;DHT22;63338;39.544;2.596;2023-07-29T09:04:45;31.20;71.70
74809;DHT22;63338;39.544;2.596;2023-07-29T09:07:12;31.50;70.50
74809;DHT22;63338;39.544;2.596;2023-07-29T09:09:42;32.00;69.10
74809;DHT22;63338;39.544;2.596;2023-07-29T09:12:08;32.50;67.40
74809;DHT22;63338;39.544;2.596;2023-07-29T09:14:40;32.60;66.70
74809;DHT22;63338;39.544;2.596;2023-07-29T09:17:13;32.90;66.30
74809;DHT22;63338;39.544;2.596;2023-07-29T09:19:50;33.20;65.00
74809;DHT22;63338;39.544;2.596;2023-07-29T09:22:18;33.50;64.30
74809;DHT22;63338;39.544;2.596;2023-07-29T09:24:52;33.70;63.70
74809;DHT22;63338;39.544;2.596;2023-07-29T09:35:48;34.10;62.10
74809;DHT22;63338;39.544;2.596;2023-07-29T09:38:27;34.10;61.40
74809;DHT22;63338;39.544;2.596;2023-07-29T09:41:16;34.00;61.70
74809;DHT22;63338;39.544;2.596;2023-07-29T09:44:07;33.90;62.60
74809;DHT22;63338;39.544;2.596;2023-07-29T09:46:47;34.00;62.00
74809;DHT22;63338;39.544;2.596;2023-07-29T09:50:31;33.90;63.60
74809;DHT22;63338;39.544;2.596;2023-07-29T09:52:57;34.00;62.40
74809;DHT22;63338;39.544;2.596;2023-07-29T10:47:16;30.60;74.40
74809;DHT22;63338;39.544;2.596;2023-07-29T10:57:50;30.50;73.60
74809;DHT22;63338;39.544;2.596;2023-07-29T11:35:57;30.10;75.60
74809;DHT22;63338;39.544;2.596;2023-07-29T11:49:36;31.10;73.30
74809;DHT22;63338;39.544;2.596;2023-07-29T11:52:12;31.20;72.90
74809;DHT22;63338;39.544;2.596;2023-07-29T11:54:40;31.30;73.10
74809;DHT22;63338;39.544;2.596;2023-07-29T11:57:43;31.30;72.70
74809;DHT22;63338;39.544;2.596;2023-07-29T12:00:44;31.10;72.80
74809;DHT22;63338;39.544;2.596;2023-07-29T12:03:21;31.10;73.50
74809;DHT22;63338;39.544;2.596;2023-07-29T12:06:54;31.00;73.60
74809;DHT22;63338;39.544;2.596;2023-07-29T12:10:25;31.10;73.00
74809;DHT22;63338;39.544;2.596;2023-07-29T12:13:29;31.00;73.00
74809;DHT22;63338;39.544;2.596;2023-07-29T12:16:18;30.70;73.40
74809;DHT22;63338;39.544;2.596;2023-07-29T12:18:50;30.60;73.60
74809;DHT22;63338;39.544;2.596;2023-07-29T12:21:45;30.60;74.10
74809;DHT22;63338;39.544;2.596;2023-07-29T12:24:13;30.60;74.00
74809;DHT22;63338;39.544;2.596;2023-07-29T12:27:03;30.50;74.00
74809;DHT22;63338;39.544;2.596;2023-07-29T12:29:41;30.50;73.90
74809;DHT22;63338;39.544;2.596;2023-07-29T12:32:48;30.40;74.00
74809;DHT22;63338;39.544;2.596;2023-07-29T12:36:06;30.50;73.60
74809;DHT22;63338;39.544;2.596;2023-07-29T12:38:43;30.50;72.80
74809;DHT22;63338;39.544;2.596;2023-07-29T12:41:28;30.60;72.60
74809;DHT22;63338;39.544;2.596;2023-07-29T12:44:04;30.50;71.70
74809;DHT22;63338;39.544;2.596;2023-07-29T12:46:37;30.70;71.10
74809;DHT22;63338;39.544;2.596;2023-07-29T12:57:28;30.70;70.20
74809;DHT22;63338;39.544;2.596;2023-07-29T12:59:58;30.60;70.20
74809;DHT22;63338;39.544;2.596;2023-07-29T13:02:37;30.60;70.70
74809;DHT22;63338;39.544;2.596;2023-07-29T13:05:05;30.60;71.20
74809;DHT22;63338;39.544;2.596;2023-07-29T13:07:32;30.50;70.90
74809;DHT22;63338;39.544;2.596;2023-07-29T13:09:59;30.50;70.20
74809;DHT22;63338;39.544;2.596;2023-07-29T13:12:26;30.40;71.40
74809;DHT22;63338;39.544;2.596;2023-07-29T13:14:52;30.40;71.90
74809;DHT22;63338;39.544;2.596;2023-07-29T13:17:22;30.40;71.90
74809;DHT22;63338;39.544;2.596;2023-07-29T13:19:49;30.50;72.00
74809;DHT22;63338;39.544;2.596;2023-07-29T13:30:09;30.40;72.70
74809;DHT22;63338;39.544;2.596;2023-07-29T13:32:48;30.30;72.60
74809;DHT22;63338;39.544;2.596;2023-07-29T13:35:58;30.30;73.20
74809;DHT22;63338;39.544;2.596;2023-07-29T13:42:40;30.40;72.90
74809;DHT22;63338;39.544;2.596;2023-07-29T13:54:07;30.30;72.70
74809;DHT22;63338;39.544;2.596;2023-07-29T14:01:56;30.20;73.10
74809;DHT22;63338;39.544;2.596;2023-07-29T14:08:47;30.50;72.10
74809;DHT22;63338;39.544;2.596;2023-07-29T14:11:30;30.40;72.40
74809;DHT22;63338;39.544;2.596;2023-07-29T14:14:17;30.50;72.40
74809;DHT22;63338;39.544;2.596;2023-07-29T14:16:49;30.30;73.10
74809;DHT22;63338;39.544;2.596;2023-07-29T14:19:25;30.40;72.70
74809;DHT22;63338;39.544;2.596;2023-07-29T14:21:51;30.50;72.40
74809;DHT22;63338;39.544;2.596;2023-07-29T14:24:18;30.60;72.30
74809;DHT22;63338;39.544;2.596;2023-07-29T14:26:47;30.50;72.10
74809;DHT22;63338;39.544;2.596;2023-07-29T14:29:21;30.50;72.50
74809;DHT22;63338;39.544;2.596;2023-07-29T14:31:48;30.50;72.10
74809;DHT22;63338;39.544;2.596;2023-07-29T14:34:25;30.50;72.00
74809;DHT22;63338;39.544;2.596;2023-07-29T14:36:55;30.60;72.00
74809;DHT22;63338;39.544;2.596;2023-07-29T14:39:32;30.50;72.50
74809;DHT22;63338;39.544;2.596;2023-07-29T14:42:10;30.40;72.60
74809;DHT22;63338;39.544;2.596;2023-07-29T14:44:45;30.30;73.00
74809;DHT22;63338;39.544;2.596;2023-07-29T14:47:30;30.10;73.30
74809;DHT22;63338;39.544;2.596;2023-07-29T14:50:10;30.20;73.90
74809;DHT22;63338;39.544;2.596;2023-07-29T14:52:49;30.20;73.50
74809;DHT22;63338;39.544;2.596;2023-07-29T14:55:47;30.10;73.20
74809;DHT22;63338;39.544;2.596;2023-07-29T14:58:14;30.00;73.10
74809;DHT22;63338;39.544;2.596;2023-07-29T15:00:44;30.10;72.90
74809;DHT22;63338;39.544;2.596;2023-07-29T15:03:46;30.00;73.10
74809;DHT22;63338;39.544;2.596;2023-07-29T15:06:16;30.10;73.10
74809;DHT22;63338;39.544;2.596;2023-07-29T15:08:51;30.20;73.30
74809;DHT22;63338;39.544;2.596;2023-07-29T15:11:19;30.00;73.50
74809;DHT22;63338;39.544;2.596;2023-07-29T15:13:45;30.00;73.30
74809;DHT22;63338;39.544;2.596;2023-07-29T15:16:13;30.10;73.40
74809;DHT22;63338;39.544;2.596;2023-07-29T15:18:40;29.90;73.20
74809;DHT22;63338;39.544;2.596;2023-07-29T15:21:10;29.90;73.00
74809;DHT22;63338;39.544;2.596;2023-07-29T15:23:36;29.90;73.60
74809;DHT22;63338;39.544;2.596;2023-07-29T15:26:05;29.90;73.40
74809;DHT22;63338;39.544;2.596;2023-07-29T15:28:34;29.90;73.70
74809;DHT22;63338;39.544;2.596;2023-07-29T15:31:03;30.00;73.60
74809;DHT22;63338;39.544;2.596;2023-07-29T15:37:30;30.00;73.50
74809;DHT22;63338;39.544;2.596;2023-07-29T15:40:03;30.00;73.60
74809;DHT22;63338;39.544;2.596;2023-07-29T15:42:37;29.90;74.00
74809;DHT22;63338;39.544;2.596;2023-07-29T15:45:18;29.80;74.20
74809;DHT22;63338;39.544;2.596;2023-07-29T15:47:54;29.70;74.60
74809;DHT22;63338;39.544;2.596;2023-07-29T15:50:53;29.80;75.00
74809;DHT22;63338;39.544;2.596;2023-07-29T15:53:44;29.70;74.40
74809;DHT22;63338;39.544;2.596;2023-07-29T15:56:26;29.80;74.40
74809;DHT22;63338;39.544;2.596;2023-07-29T16:02:34;29.80;74.40
74809;DHT22;63338;39.544;2.596;2023-07-29T16:05:33;29.80;74.50
74809;DHT22;63338;39.544;2.596;2023-07-29T16:09:07;29.80;73.90
74809;DHT22;63338;39.544;2.596;2023-07-29T16:23:07;29.50;76.10
74809;DHT22;63338;39.544;2.596;2023-07-29T17:01:37;29.40;76.60
74809;DHT22;63338;39.544;2.596;2023-07-29T17:12:05;29.20;75.80
74809;DHT22;63338;39.544;2.596;2023-07-29T17:14:49;29.30;77.80
74809;DHT22;63338;39.544;2.596;2023-07-29T17:42:34;29.10;79.00
74809;DHT22;63338;39.544;2.596;2023-07-29T17:45:05;29.10;78.90
74809;DHT22;63338;39.544;2.596;2023-07-29T17:47:34;29.00;79.70
74809;DHT22;63338;39.544;2.596;2023-07-29T17:50:00;29.00;79.70
74809;DHT22;63338;39.544;2.596;2023-07-29T17:52:26;29.00;80.10
74809;DHT22;63338;39.544;2.596;2023-07-29T17:54:53;29.00;80.10
74809;DHT22;63338;39.544;2.596;2023-07-29T17:57:23;29.00;79.90
74809;DHT22;63338;39.544;2.596;2023-07-29T17:59:55;29.00;79.80
74809;DHT22;63338;39.544;2.596;2023-07-29T18:02:22;29.00;80.00
74809;DHT22;63338;39.544;2.596;2023-07-29T18:04:48;29.00;80.00
74809;DHT22;63338;39.544;2.596;2023-07-29T18:07:14;29.00;79.80
74809;DHT22;63338;39.544;2.596;2023-07-29T18:09:40;28.90;80.20
74809;DHT22;63338;39.544;2.596;2023-07-29T18:12:07;28.90;80.50
74809;DHT22;63338;39.544;2.596;2023-07-29T18:17:53;28.80;80.60
74809;DHT22;63338;39.544;2.596;2023-07-29T18:20:40;28.70;80.50
74809;DHT22;63338;39.544;2.596;2023-07-29T18:23:16;28.70;80.80
74809;DHT22;63338;39.544;2.596;2023-07-29T18:25:46;28.60;80.70
74809;DHT22;63338;39.544;2.596;2023-07-29T18:28:14;28.70;80.60
74809;DHT22;63338;39.544;2.596;2023-07-29T18:30:43;28.70;80.80
74809;DHT22;63338;39.544;2.596;2023-07-29T18:33:10;28.60;80.80
74809;DHT22;63338;39.544;2.596;2023-07-29T18:35:44;28.60;80.80
74809;DHT22;63338;39.544;2.596;2023-07-29T18:38:13;28.50;80.60
74809;DHT22;63338;39.544;2.596;2023-07-29T18:40:39;28.60;80.70
74809;DHT22;63338;39.544;2.596;2023-07-29T18:43:07;28.50;81.20
74809;DHT22;63338;39.544;2.596;2023-07-29T18:45:35;28.50;81.40
74809;DHT22;63338;39.544;2.596;2023-07-29T18:48:01;28.60;81.60
74809;DHT22;63338;39.544;2.596;2023-07-29T18:50:31;28.60;81.40
74809;DHT22;63338;39.544;2.596;2023-07-29T18:53:00;28.60;81.40
74809;DHT22;63338;39.544;2.596;2023-07-29T18:55:27;28.40;81.40
74809;DHT22;63338;39.544;2.596;2023-07-29T18:58:00;28.40;81.30
74809;DHT22;63338;39.544;2.596;2023-07-29T19:04:08;28.50;81.90
74809;DHT22;63338;39.544;2.596;2023-07-29T19:06:35;28.30;82.20
74809;DHT22;63338;39.544;2.596;2023-07-29T19:09:03;28.40;82.10
74809;DHT22;63338;39.544;2.596;2023-07-29T19:11:30;28.30;81.60
74809;DHT22;63338;39.544;2.596;2023-07-29T19:13:57;28.20;80.50
74809;DHT22;63338;39.544;2.596;2023-07-29T19:16:24;28.20;78.70
74809;DHT22;63338;39.544;2.596;2023-07-29T19:21:51;28.10;76.60
74809;DHT22;63338;39.544;2.596;2023-07-29T19:24:23;28.00;76.60
74809;DHT22;63338;39.544;2.596;2023-07-29T19:26:51;28.00;76.30
74809;DHT22;63338;39.544;2.596;2023-07-29T19:29:33;27.90;76.10
74809;DHT22;63338;39.544;2.596;2023-07-29T19:32:16;27.90;78.30
74809;DHT22;63338;39.544;2.596;2023-07-29T19:34:42;27.80;76.00
74809;DHT22;63338;39.544;2.596;2023-07-29T19:37:30;27.90;79.10
74809;DHT22;63338;39.544;2.596;2023-07-29T19:40:17;27.80;79.70
74809;DHT22;63338;39.544;2.596;2023-07-29T19:42:43;27.80;78.60
74809;DHT22;63338;39.544;2.596;2023-07-29T19:45:19;27.80;78.90
74809;DHT22;63338;39.544;2.596;2023-07-29T19:51:44;27.70;80.30
74809;DHT22;63338;39.544;2.596;2023-07-29T19:54:33;27.60;77.40
74809;DHT22;63338;39.544;2.596;2023-07-29T19:57:29;27.60;75.70
74809;DHT22;63338;39.544;2.596;2023-07-29T20:03:49;27.50;75.30
74809;DHT22;63338;39.544;2.596;2023-07-29T20:06:39;27.50;74.90
74809;DHT22;63338;39.544;2.596;2023-07-29T20:09:22;27.40;74.30
74809;DHT22;63338;39.544;2.596;2023-07-29T20:12:24;27.30;74.70
74809;DHT22;63338;39.544;2.596;2023-07-29T20:14:50;27.40;73.60
74809;DHT22;63338;39.544;2.596;2023-07-29T20:20:28;27.30;73.60
74809;DHT22;63338;39.544;2.596;2023-07-29T20:23:07;27.30;75.90
74809;DHT22;63338;39.544;2.596;2023-07-29T20:25:33;27.30;74.30
74809;DHT22;63338;39.544;2.596;2023-07-29T20:28:00;27.20;74.20
74809;DHT22;63338;39.544;2.596;2023-07-29T20:30:30;27.20;74.30
74809;DHT22;63338;39.544;2.596;2023-07-29T20:33:11;27.00;74.10